Ohio — WOHN — position and weather

sailwx.info

Track history (hours):
 
Tides and Currents Weather Stations Pressure Air Temp Water Temp Dewpoint Dewpoint Depression Visibility Wind Speed Wind Dir Waves Ship Positions

Ohio

Owner: Crowley Petroleum Services, Inc., Jacksonville, FL. More information available from US FCC via Universal Licensing System and Coast Guard Vessel Documentation Center.

Last reported at 2018-Apr-21 22:44 UTC. Time now 2018-Apr-22 13:49 UTC.
Position N 27°35' W 083°06'.

Length 183 m; draft 8.4 m.

Type: Tanker. MMSI: 338227000.

Date/timePositionNaut miles runAvg speedWind from/ knotsBaromVisibWave heightAir tempDewpointWater temp
2018-Apr-21 22:44N 27°35' W 083°06'312.0
2018-Apr-21 22:30N 27°35' W 083°03'712.3
2018-Apr-21 21:58N 27°36' W 082°55'612.4
2018-Apr-21 21:30N 27°37' W 082°49'711.7
2018-Apr-21 20:55N 27°37' W 082°41'511.3
2018-Apr-21 20:30N 27°39' W 082°37'611.4
2018-Apr-21 20:00N 27°43' W 082°32'510.6
2018-Apr-21 19:30N 27°48' W 082°29'510.6
2018-Apr-21 19:00N 27°53' W 082°26'3 6.7
2018-Apr-21 18:30N 27°56' W 082°27'1 1.9
2018-Apr-21 18:01N 27°57' W 082°27'0 0.0
2018-Apr-21 17:28N 27°57' W 082°27'0 0.0
2018-Apr-21 16:58N 27°57' W 082°27'0 0.0
2018-Apr-21 16:28N 27°57' W 082°27'0 0.0
2018-Apr-21 15:58N 27°57' W 082°27'0 0.0
2018-Apr-21 15:28N 27°57' W 082°27'0 0.0
2018-Apr-21 14:58N 27°57' W 082°27'0 0.0
2018-Apr-21 14:28N 27°57' W 082°27'0 0.0
2018-Apr-21 13:58N 27°57' W 082°27'0 0.0
2018-Apr-21 13:28N 27°57' W 082°27'0 0.0
2018-Apr-21 12:58N 27°57' W 082°27'0 0.0
2018-Apr-21 12:28N 27°57' W 082°27'0 0.0
2018-Apr-21 11:58N 27°57' W 082°27'0 0.0
2018-Apr-21 11:28N 27°57' W 082°27'0 0.0
2018-Apr-21 10:58N 27°57' W 082°27'0 0.0
2018-Apr-21 10:28N 27°57' W 082°27'0 0.0
2018-Apr-21 09:58N 27°57' W 082°27'0 0.0
2018-Apr-21 09:28N 27°57' W 082°27'0 0.0
2018-Apr-21 08:58N 27°57' W 082°27'0 0.0
2018-Apr-21 08:28N 27°57' W 082°27'0 0.0
2018-Apr-21 07:58N 27°57' W 082°27'0 0.0
2018-Apr-21 07:28N 27°57' W 082°27'0 0.0
2018-Apr-21 06:58N 27°57' W 082°27'0 0.0
2018-Apr-21 06:28N 27°57' W 082°27'0 0.0
2018-Apr-21 05:58N 27°57' W 082°27'0 0.0
2018-Apr-21 05:28N 27°57' W 082°27'0 0.0
2018-Apr-21 04:58N 27°57' W 082°27'0 0.0
2018-Apr-21 04:28N 27°57' W 082°27'0 0.0
2018-Apr-21 03:58N 27°57' W 082°27'0 0.0
2018-Apr-21 03:28N 27°57' W 082°27'0 0.0
2018-Apr-21 02:58N 27°57' W 082°27'0 0.0
2018-Apr-21 02:28N 27°57' W 082°27'0 0.0
2018-Apr-21 01:58N 27°57' W 082°27'0 0.0
2018-Apr-21 01:28N 27°57' W 082°27'0 0.0
2018-Apr-21 01:00N 27°57' W 082°27'1 1.9
2018-Apr-21 00:30N 27°56' W 082°27'2 4.5
2018-Apr-21 00:00N 27°54' W 082°26'510.3
2018-Apr-20 23:30N 27°49' W 082°27'510.3
2018-Apr-20 23:00N 27°45' W 082°32'611.0
2018-Apr-20 22:26N 27°40' W 082°36'3 6.1
2018-Apr-20 21:59N 27°38' W 082°34'0 0.0
2018-Apr-19 12:23N 27°38' W 082°34'0 0.0
2018-Apr-19 12:00N 27°38' W 082°34'0 0.8
2018-Apr-19 11:29N 27°38' W 082°34'2 4.9
2018-Apr-19 10:59N 27°39' W 082°37'510.5
2018-Apr-19 10:30N 27°37' W 082°42'611.3
2018-Apr-19 10:00N 27°37' W 082°48'511.0
2018-Apr-19 09:30N 27°36' W 082°54'510.9
2018-Apr-19 09:00N 27°36' W 083°01'1 3.0
2018-Apr-19 08:30N 27°37' W 083°02'0 0.1
2018-Apr-19 08:00N 27°37' W 083°02'0 0.1
2018-Apr-19 07:07N 27°37' W 083°02'0 0.0
2018-Apr-19 07:00N 27°37' W 083°02'2 3.0
2018-Apr-19 06:30N 27°37' W 083°03'611.5
2018-Apr-19 05:59N 27°36' W 083°10'612.8
2018-Apr-19 05:30N 27°35' W 083°17'713.6
2018-Apr-19 05:00N 27°35' W 083°24'713.7
2018-Apr-19 04:30N 27°35' W 083°32'713.8
2018-Apr-19 03:59N 27°35' W 083°40'713.9
2018-Apr-19 03:30N 27°35' W 083°48'714.0
2018-Apr-19 03:00N 27°35' W 083°56'6713.8
2018-Apr-18 22:08N 27°36' W 085°11'42512.7
2018-Apr-17 12:37N 28°31' W 093°09'213.0
2018-Apr-17 12:29N 28°33' W 093°10'712.9
2018-Apr-17 11:58N 28°38' W 093°14'712.9
2018-Apr-17 11:27N 28°44' W 093°19'712.9
2018-Apr-17 10:55N 28°49' W 093°24'512.7
2018-Apr-17 10:30N 28°53' W 093°28'612.6
2018-Apr-17 09:59N 28°58' W 093°32'612.6
2018-Apr-17 09:30N 29°03' W 093°36'611.8
2018-Apr-17 09:00N 29°08' W 093°40'612.0
2018-Apr-17 08:30N 29°14' W 093°39'611.9
2018-Apr-17 08:00N 29°20' W 093°40'510.4
2018-Apr-17 07:30N 29°25' W 093°41'4 7.9
2018-Apr-17 07:00N 29°29' W 093°40'511.0
2018-Apr-17 06:30N 29°33' W 093°45'510.4
2018-Apr-17 06:00N 29°37' W 093°49'510.8
2018-Apr-17 05:30N 29°42' W 093°51'4 8.6
2018-Apr-17 05:00N 29°46' W 093°54'4 8.0
2018-Apr-17 04:30N 29°48' W 093°57'3 6.6
2018-Apr-17 04:00N 29°51' W 093°57'3 6.8
2018-Apr-17 03:30N 29°54' W 093°54'3 6.3
2018-Apr-17 03:00N 29°57' W 093°52'3 5.2
2018-Apr-17 02:30N 29°59' W 093°53'3 6.3
2018-Apr-17 02:00N 29°60' W 093°56'2 4.8
2018-Apr-17 01:31N 30°01' W 093°59'3 5.0
2018-Apr-17 01:00N 30°01' W 094°02'1 1.9
2018-Apr-17 00:28N 30°02' W 094°02'0 0.0
2018-Apr-16 23:58N 30°02' W 094°02'0 0.0
2018-Apr-16 23:28N 30°02' W 094°02'0 0.0
2018-Apr-16 22:59N 30°02' W 094°02'0 0.0
2018-Apr-16 22:28N 30°02' W 094°02'0 0.0
2018-Apr-16 21:58N 30°02' W 094°02'0 0.0
2018-Apr-16 21:28N 30°02' W 094°02'0 0.0
2018-Apr-16 20:58N 30°02' W 094°02'0 0.0
2018-Apr-16 20:28N 30°02' W 094°02'0 0.0
2018-Apr-16 19:58N 30°02' W 094°02'0 0.0
2018-Apr-16 19:28N 30°02' W 094°02'0 0.0
2018-Apr-16 18:58N 30°02' W 094°02'0 0.0
2018-Apr-16 18:28N 30°02' W 094°02'0 0.0
2018-Apr-16 17:58N 30°02' W 094°02'0 0.0
2018-Apr-16 17:28N 30°02' W 094°02'0 0.0
2018-Apr-16 16:58N 30°02' W 094°02'0 0.0
2018-Apr-16 16:28N 30°02' W 094°02'0 0.0
2018-Apr-16 15:58N 30°02' W 094°02'0 0.0
2018-Apr-16 15:28N 30°02' W 094°02'0 0.0
2018-Apr-16 14:58N 30°02' W 094°02'0 0.0
2018-Apr-16 14:28N 30°02' W 094°02'0 0.0
2018-Apr-16 13:58N 30°02' W 094°02'0 0.0
2018-Apr-16 13:28N 30°02' W 094°02'0 0.0
2018-Apr-16 12:58N 30°02' W 094°02'0 0.0
2018-Apr-16 12:28N 30°02' W 094°02'0 0.0
2018-Apr-16 11:58N 30°02' W 094°02'0 0.0
2018-Apr-16 11:28N 30°02' W 094°02'0 0.0
2018-Apr-16 10:58N 30°02' W 094°02'0 0.0
2018-Apr-16 10:28N 30°02' W 094°02'0 0.0
2018-Apr-16 09:58N 30°02' W 094°02'0 0.0
2018-Apr-16 09:28N 30°02' W 094°02'0 0.0
2018-Apr-16 08:58N 30°02' W 094°02'0 0.0
2018-Apr-16 08:28N 30°02' W 094°02'0 0.0
2018-Apr-16 07:58N 30°02' W 094°02'0 0.0
2018-Apr-16 07:28N 30°02' W 094°02'0 0.0
2018-Apr-16 06:58N 30°02' W 094°02'0 0.0
2018-Apr-16 06:28N 30°02' W 094°02'0 0.0
2018-Apr-16 05:58N 30°02' W 094°02'0 0.0
2018-Apr-16 05:28N 30°02' W 094°02'0 0.0
2018-Apr-16 04:58N 30°02' W 094°02'0 0.0
2018-Apr-16 04:28N 30°02' W 094°02'0 0.0
2018-Apr-16 03:58N 30°02' W 094°02'0 0.0
2018-Apr-16 03:28N 30°02' W 094°02'0 0.0
2018-Apr-16 02:58N 30°02' W 094°02'0 0.0
2018-Apr-16 02:28N 30°02' W 094°02'0 0.0
2018-Apr-16 01:58N 30°02' W 094°02'0 0.0
2018-Apr-16 01:28N 30°02' W 094°02'0 0.0
2018-Apr-16 00:58N 30°02' W 094°02'0 0.0
2018-Apr-16 00:28N 30°02' W 094°02'0 0.0
2018-Apr-15 23:58N 30°02' W 094°02'0 0.0
2018-Apr-15 23:28N 30°02' W 094°02'0 0.0
2018-Apr-15 22:58N 30°02' W 094°02'0 0.0
2018-Apr-15 22:28N 30°02' W 094°02'0 0.0
2018-Apr-15 21:58N 30°02' W 094°02'0 0.0
2018-Apr-15 21:28N 30°02' W 094°02'0 0.0
2018-Apr-15 20:58N 30°02' W 094°02'0 0.0
2018-Apr-15 20:28N 30°02' W 094°02'0 0.0
2018-Apr-15 19:58N 30°02' W 094°02'0 0.0
2018-Apr-15 19:28N 30°02' W 094°02'0 0.0
2018-Apr-15 18:58N 30°02' W 094°02'0 0.0
2018-Apr-15 18:28N 30°02' W 094°02'0 0.0
2018-Apr-15 17:58N 30°02' W 094°02'0 0.0
2018-Apr-15 17:28N 30°02' W 094°02'0 0.0
2018-Apr-15 16:58N 30°02' W 094°02'0 0.0
2018-Apr-15 16:28N 30°02' W 094°02'0 0.0
2018-Apr-15 15:58N 30°02' W 094°02'0 0.0
2018-Apr-15 15:28N 30°02' W 094°02'0 0.0
2018-Apr-15 14:58N 30°02' W 094°02'0 0.0
2018-Apr-15 14:28N 30°02' W 094°02'0 0.0
2018-Apr-15 13:58N 30°02' W 094°02'0 0.0
2018-Apr-15 13:28N 30°02' W 094°02'0 0.0
2018-Apr-15 12:58N 30°02' W 094°02'0 0.0
2018-Apr-15 12:28N 30°02' W 094°02'0 0.0
2018-Apr-15 11:58N 30°02' W 094°02'0 0.0
2018-Apr-15 11:28N 30°02' W 094°02'0 0.0
2018-Apr-15 10:58N 30°02' W 094°02'0 0.0
2018-Apr-15 10:28N 30°02' W 094°02'0 0.0
2018-Apr-15 09:55N 30°02' W 094°02'0 0.0
2018-Apr-15 09:28N 30°02' W 094°02'0 0.0
2018-Apr-15 08:58N 30°02' W 094°02'0 0.0
2018-Apr-15 08:28N 30°02' W 094°02'0 0.0
2018-Apr-15 07:58N 30°02' W 094°02'0 0.0
2018-Apr-15 07:28N 30°02' W 094°02'0 0.0
2018-Apr-15 06:58N 30°02' W 094°02'0 0.0
2018-Apr-15 06:28N 30°02' W 094°02'0 0.0
2018-Apr-15 05:55N 30°02' W 094°02'0 0.0
2018-Apr-15 05:28N 30°02' W 094°02'0 0.0
2018-Apr-15 04:58N 30°02' W 094°02'0 0.0
2018-Apr-15 04:28N 30°02' W 094°02'0 0.0
2018-Apr-15 03:58N 30°02' W 094°02'0 0.0
2018-Apr-15 03:28N 30°02' W 094°02'0 0.0
2018-Apr-15 02:58N 30°02' W 094°02'0 0.0
2018-Apr-15 02:28N 30°02' W 094°02'0 0.0
2018-Apr-15 01:58N 30°02' W 094°02'0 0.0
2018-Apr-15 01:28N 30°02' W 094°02'0 0.0
2018-Apr-15 00:58N 30°02' W 094°02'0 0.0
2018-Apr-15 00:28N 30°02' W 094°02'0 0.0
2018-Apr-14 23:58N 30°02' W 094°02'0 0.0
2018-Apr-14 23:28N 30°02' W 094°02'0 0.0
2018-Apr-14 22:58N 30°02' W 094°02'0 0.0
2018-Apr-14 22:28N 30°02' W 094°02'0 0.0
2018-Apr-14 21:58N 30°02' W 094°02'0 0.0
2018-Apr-14 21:28N 30°02' W 094°02'0 0.0
2018-Apr-14 20:58N 30°02' W 094°02'0 0.0
2018-Apr-14 20:28N 30°02' W 094°02'0 0.0
2018-Apr-14 19:58N 30°02' W 094°02'0 0.0
2018-Apr-14 19:28N 30°02' W 094°02'0 0.0
2018-Apr-14 18:58N 30°02' W 094°02'0 0.0
2018-Apr-14 18:28N 30°02' W 094°02'0 0.0
2018-Apr-14 17:58N 30°02' W 094°02'0 0.0
2018-Apr-14 17:28N 30°02' W 094°02'0 0.0
2018-Apr-14 16:58N 30°02' W 094°02'0 0.0
2018-Apr-14 16:28N 30°02' W 094°02'0 0.0
2018-Apr-14 15:58N 30°02' W 094°02'0 0.0
2018-Apr-14 15:28N 30°02' W 094°02'0 0.0
2018-Apr-14 14:58N 30°02' W 094°02'0 0.0
2018-Apr-14 14:28N 30°02' W 094°02'0 0.0
2018-Apr-14 13:58N 30°02' W 094°02'0 0.0
2018-Apr-14 13:28N 30°02' W 094°02'0 0.0
2018-Apr-14 12:58N 30°02' W 094°02'0 0.0
2018-Apr-14 12:28N 30°02' W 094°02'0 0.0
2018-Apr-14 11:58N 30°02' W 094°02'0 0.0
2018-Apr-14 11:28N 30°02' W 094°02'0 0.0
2018-Apr-14 10:58N 30°02' W 094°02'0 0.0
2018-Apr-14 10:28N 30°02' W 094°02'0 0.0
2018-Apr-14 09:58N 30°02' W 094°02'0 0.4
2018-Apr-14 09:31N 30°02' W 094°02'1 2.3
2018-Apr-14 09:00N 30°01' W 094°01'3 5.7
2018-Apr-14 08:30N 30°01' W 093°58'3 5.9
2018-Apr-14 08:01N 29°59' W 093°55'4 7.3
2018-Apr-14 07:31N 29°58' W 093°51'4 7.5
2018-Apr-14 07:00N 29°55' W 093°54'4 8.1
2018-Apr-14 06:30N 29°51' W 093°56'4 8.5
2018-Apr-14 06:00N 29°47' W 093°57'5 9.2
2018-Apr-14 05:31N 29°44' W 093°53'510.2
2018-Apr-14 05:01N 29°40' W 093°50'611.2
2018-Apr-14 04:30N 29°35' W 093°47'4 7.3
2018-Apr-14 04:00N 29°34' W 093°43'0 0.6
2018-Apr-14 03:26N 29°34' W 093°43'0 0.0
2018-Apr-14 03:00N 29°34' W 093°43'0 0.0
2018-Apr-14 02:29N 29°34' W 093°43'0 0.0
2018-Apr-14 01:56N 29°34' W 093°43'0 0.0
2018-Apr-14 01:30N 29°34' W 093°43'0 0.0
2018-Apr-14 01:00N 29°34' W 093°43'0 0.0
2018-Apr-14 00:30N 29°34' W 093°43'0 0.0
2018-Apr-14 00:00N 29°34' W 093°43'0 0.0
2018-Apr-13 23:30N 29°34' W 093°43'0 0.0
2018-Apr-13 23:00N 29°34' W 093°43'0 0.0
2018-Apr-13 22:27N 29°34' W 093°43'0 0.0
2018-Apr-13 21:57N 29°34' W 093°43'0 0.0
2018-Apr-13 21:26N 29°34' W 093°43'0 0.0
2018-Apr-13 20:59N 29°34' W 093°43'0 0.0
2018-Apr-13 20:23N 29°34' W 093°43'0 0.0
2018-Apr-13 20:00N 29°34' W 093°43'0 0.0
2018-Apr-13 19:27N 29°34' W 093°43'0 0.0
2018-Apr-13 18:56N 29°34' W 093°43'0 0.0
2018-Apr-13 18:29N 29°34' W 093°43'0 0.0
2018-Apr-13 17:56N 29°34' W 093°43'0 0.0
2018-Apr-13 17:30N 29°34' W 093°43'0 0.0
2018-Apr-13 17:00N 29°34' W 093°43'0 0.1
2018-Apr-13 16:29N 29°34' W 093°43'0 0.0
2018-Apr-13 15:59N 29°34' W 093°43'0 0.1
2018-Apr-13 15:29N 29°34' W 093°43'0 0.0
2018-Apr-13 14:59N 29°34' W 093°43'0 0.1
2018-Apr-13 14:29N 29°34' W 093°43'0 0.1
2018-Apr-13 14:00N 29°34' W 093°43'0 0.0
2018-Apr-13 13:29N 29°34' W 093°43'0 0.0
2018-Apr-13 12:56N 29°34' W 093°43'0 0.0
2018-Apr-13 12:29N 29°34' W 093°43'0 0.0
2018-Apr-13 11:59N 29°34' W 093°43'0 0.0
2018-Apr-13 11:29N 29°34' W 093°43'0 0.0
2018-Apr-13 10:59N 29°34' W 093°43'0 0.0
2018-Apr-13 10:29N 29°34' W 093°43'0 0.0
2018-Apr-13 09:59N 29°34' W 093°43'0 0.0
2018-Apr-13 09:29N 29°34' W 093°43'0 0.0
2018-Apr-13 08:59N 29°34' W 093°43'0 0.0
2018-Apr-13 08:29N 29°34' W 093°43'0 0.0
2018-Apr-13 07:59N 29°34' W 093°43'0 0.0
2018-Apr-13 07:29N 29°34' W 093°43'0 0.0
2018-Apr-13 06:59N 29°34' W 093°43'0 0.0
2018-Apr-13 06:29N 29°34' W 093°43'0 0.0
2018-Apr-13 05:59N 29°34' W 093°43'0 0.0
2018-Apr-13 05:26N 29°34' W 093°43'0 0.0
2018-Apr-13 04:59N 29°34' W 093°43'0 0.0
2018-Apr-13 04:29N 29°34' W 093°43'0 0.0
2018-Apr-13 03:59N 29°34' W 093°43'0 0.0
2018-Apr-13 03:29N 29°34' W 093°43'0 0.0
2018-Apr-13 02:59N 29°34' W 093°43'0 0.0
2018-Apr-13 02:29N 29°34' W 093°43'0 0.0
2018-Apr-13 01:59N 29°34' W 093°43'0 0.0
2018-Apr-13 01:29N 29°34' W 093°43'0 0.0
2018-Apr-13 00:56N 29°34' W 093°43'0 0.0
2018-Apr-13 00:29N 29°34' W 093°43'0 0.0
2018-Apr-12 23:59N 29°34' W 093°43'0 0.0
2018-Apr-12 23:29N 29°34' W 093°43'0 0.0
2018-Apr-12 22:59N 29°34' W 093°43'0 0.0
2018-Apr-12 22:29N 29°34' W 093°43'0 0.0
2018-Apr-12 21:59N 29°34' W 093°43'0 0.0
2018-Apr-12 21:29N 29°34' W 093°43'0 0.0
2018-Apr-12 20:59N 29°34' W 093°43'0 0.0
2018-Apr-12 20:29N 29°34' W 093°43'0 0.0
2018-Apr-12 19:59N 29°34' W 093°43'0 0.0
2018-Apr-12 19:29N 29°34' W 093°43'0 0.0
2018-Apr-12 18:56N 29°34' W 093°43'0 0.0
2018-Apr-12 18:29N 29°34' W 093°43'0 0.0
2018-Apr-12 17:59N 29°34' W 093°43'0 0.0
2018-Apr-12 17:29N 29°34' W 093°43'0 0.0
2018-Apr-12 16:59N 29°34' W 093°43'0 0.0
2018-Apr-12 16:29N 29°34' W 093°43'0 0.1
2018-Apr-12 15:59N 29°34' W 093°43'0 0.1
2018-Apr-12 15:29N 29°34' W 093°43'0 0.0
2018-Apr-12 14:56N 29°34' W 093°43'0 0.0
2018-Apr-12 14:29N 29°34' W 093°43'0 0.1
2018-Apr-12 13:59N 29°34' W 093°43'0 0.1
2018-Apr-12 13:29N 29°34' W 093°43'0 0.1
2018-Apr-12 12:59N 29°34' W 093°43'0 0.1
2018-Apr-12 12:29N 29°34' W 093°43'0 0.1
2018-Apr-12 11:59N 29°34' W 093°43'0 0.1
2018-Apr-12 11:29N 29°34' W 093°43'0 0.1
2018-Apr-12 10:59N 29°34' W 093°43'0 0.1
2018-Apr-12 10:29N 29°34' W 093°43'0 0.0
2018-Apr-12 09:59N 29°34' W 093°43'0 0.0
2018-Apr-12 09:29N 29°34' W 093°43'0 0.0
2018-Apr-12 08:59N 29°34' W 093°43'0 0.0
2018-Apr-12 08:29N 29°34' W 093°43'0 0.0
2018-Apr-12 07:59N 29°34' W 093°43'0 0.0
2018-Apr-12 07:29N 29°34' W 093°43'0 0.0
2018-Apr-12 06:59N 29°34' W 093°43'0 0.0
2018-Apr-12 06:26N 29°34' W 093°43'0 0.0
2018-Apr-12 05:59N 29°34' W 093°43'0 0.0
2018-Apr-12 05:29N 29°34' W 093°43'0 0.0
2018-Apr-12 04:59N 29°34' W 093°43'0 0.0
2018-Apr-12 04:29N 29°34' W 093°43'0 0.0
2018-Apr-12 03:59N 29°34' W 093°43'0 0.0
2018-Apr-12 03:29N 29°34' W 093°43'0 0.0
2018-Apr-12 02:59N 29°34' W 093°43'0 0.0
2018-Apr-12 02:29N 29°34' W 093°43'0 0.0
2018-Apr-12 01:59N 29°34' W 093°43'0 0.0
2018-Apr-12 01:29N 29°34' W 093°43'0 0.0
2018-Apr-12 00:59N 29°34' W 093°43'0 0.0
2018-Apr-12 00:29N 29°34' W 093°43'0 0.0
2018-Apr-11 23:59N 29°34' W 093°43'0 0.0
2018-Apr-11 23:29N 29°34' W 093°43'0 0.0
2018-Apr-11 22:59N 29°34' W 093°43'  
Track history (hours):
 
Tides and Currents Weather Stations Pressure Air Temp Water Temp Dewpoint Dewpoint Depression Visibility Wind Speed Wind Dir Waves Ship Positions

Ohio

Owner: Crowley Petroleum Services, Inc., Jacksonville, FL. More information available from US FCC via Universal Licensing System and Coast Guard Vessel Documentation Center.

Last reported at 2018-Apr-21 22:44 UTC. Time now 2018-Apr-22 13:49 UTC.
Position N 27°35' W 083°06'.

Length 183 m; draft 8.4 m.

Type: Tanker. MMSI: 338227000.

Date/timePositionNaut miles runAvg speedWind from/ knotsBaromVisibWave heightAir tempDewpointWater temp
2018-Apr-21 22:44N 27°35' W 083°06'312.0
2018-Apr-21 22:30N 27°35' W 083°03'712.3
2018-Apr-21 21:58N 27°36' W 082°55'612.4
2018-Apr-21 21:30N 27°37' W 082°49'711.7
2018-Apr-21 20:55N 27°37' W 082°41'511.3
2018-Apr-21 20:30N 27°39' W 082°37'611.4
2018-Apr-21 20:00N 27°43' W 082°32'510.6
2018-Apr-21 19:30N 27°48' W 082°29'510.6
2018-Apr-21 19:00N 27°53' W 082°26'3 6.7
2018-Apr-21 18:30N 27°56' W 082°27'1 1.9
2018-Apr-21 18:01N 27°57' W 082°27'0 0.0
2018-Apr-21 17:28N 27°57' W 082°27'0 0.0
2018-Apr-21 16:58N 27°57' W 082°27'0 0.0
2018-Apr-21 16:28N 27°57' W 082°27'0 0.0
2018-Apr-21 15:58N 27°57' W 082°27'0 0.0
2018-Apr-21 15:28N 27°57' W 082°27'0 0.0
2018-Apr-21 14:58N 27°57' W 082°27'0 0.0
2018-Apr-21 14:28N 27°57' W 082°27'0 0.0
2018-Apr-21 13:58N 27°57' W 082°27'0 0.0
2018-Apr-21 13:28N 27°57' W 082°27'0 0.0
2018-Apr-21 12:58N 27°57' W 082°27'0 0.0
2018-Apr-21 12:28N 27°57' W 082°27'0 0.0
2018-Apr-21 11:58N 27°57' W 082°27'0 0.0
2018-Apr-21 11:28N 27°57' W 082°27'0 0.0
2018-Apr-21 10:58N 27°57' W 082°27'0 0.0
2018-Apr-21 10:28N 27°57' W 082°27'0 0.0
2018-Apr-21 09:58N 27°57' W 082°27'0 0.0
2018-Apr-21 09:28N 27°57' W 082°27'0 0.0
2018-Apr-21 08:58N 27°57' W 082°27'0 0.0
2018-Apr-21 08:28N 27°57' W 082°27'0 0.0
2018-Apr-21 07:58N 27°57' W 082°27'0 0.0
2018-Apr-21 07:28N 27°57' W 082°27'0 0.0
2018-Apr-21 06:58N 27°57' W 082°27'0 0.0
2018-Apr-21 06:28N 27°57' W 082°27'0 0.0
2018-Apr-21 05:58N 27°57' W 082°27'0 0.0
2018-Apr-21 05:28N 27°57' W 082°27'0 0.0
2018-Apr-21 04:58N 27°57' W 082°27'0 0.0
2018-Apr-21 04:28N 27°57' W 082°27'0 0.0
2018-Apr-21 03:58N 27°57' W 082°27'0 0.0
2018-Apr-21 03:28N 27°57' W 082°27'0 0.0
2018-Apr-21 02:58N 27°57' W 082°27'0 0.0
2018-Apr-21 02:28N 27°57' W 082°27'0 0.0
2018-Apr-21 01:58N 27°57' W 082°27'0 0.0
2018-Apr-21 01:28N 27°57' W 082°27'0 0.0
2018-Apr-21 01:00N 27°57' W 082°27'1 1.9
2018-Apr-21 00:30N 27°56' W 082°27'2 4.5
2018-Apr-21 00:00N 27°54' W 082°26'510.3
2018-Apr-20 23:30N 27°49' W 082°27'510.3
2018-Apr-20 23:00N 27°45' W 082°32'611.0
2018-Apr-20 22:26N 27°40' W 082°36'3 6.1
2018-Apr-20 21:59N 27°38' W 082°34'0 0.0
2018-Apr-19 12:23N 27°38' W 082°34'0 0.0
2018-Apr-19 12:00N 27°38' W 082°34'0 0.8
2018-Apr-19 11:29N 27°38' W 082°34'2 4.9
2018-Apr-19 10:59N 27°39' W 082°37'510.5
2018-Apr-19 10:30N 27°37' W 082°42'611.3
2018-Apr-19 10:00N 27°37' W 082°48'511.0
2018-Apr-19 09:30N 27°36' W 082°54'510.9
2018-Apr-19 09:00N 27°36' W 083°01'1 3.0
2018-Apr-19 08:30N 27°37' W 083°02'0 0.1
2018-Apr-19 08:00N 27°37' W 083°02'0 0.1
2018-Apr-19 07:07N 27°37' W 083°02'0 0.0
2018-Apr-19 07:00N 27°37' W 083°02'2 3.0
2018-Apr-19 06:30N 27°37' W 083°03'611.5
2018-Apr-19 05:59N 27°36' W 083°10'612.8
2018-Apr-19 05:30N 27°35' W 083°17'713.6
2018-Apr-19 05:00N 27°35' W 083°24'713.7
2018-Apr-19 04:30N 27°35' W 083°32'713.8
2018-Apr-19 03:59N 27°35' W 083°40'713.9
2018-Apr-19 03:30N 27°35' W 083°48'714.0
2018-Apr-19 03:00N 27°35' W 083°56'6713.8
2018-Apr-18 22:08N 27°36' W 085°11'42512.7
2018-Apr-17 12:37N 28°31' W 093°09'213.0
2018-Apr-17 12:29N 28°33' W 093°10'712.9
2018-Apr-17 11:58N 28°38' W 093°14'712.9
2018-Apr-17 11:27N 28°44' W 093°19'712.9
2018-Apr-17 10:55N 28°49' W 093°24'512.7
2018-Apr-17 10:30N 28°53' W 093°28'612.6
2018-Apr-17 09:59N 28°58' W 093°32'612.6
2018-Apr-17 09:30N 29°03' W 093°36'611.8
2018-Apr-17 09:00N 29°08' W 093°40'612.0
2018-Apr-17 08:30N 29°14' W 093°39'611.9
2018-Apr-17 08:00N 29°20' W 093°40'510.4
2018-Apr-17 07:30N 29°25' W 093°41'4 7.9
2018-Apr-17 07:00N 29°29' W 093°40'511.0
2018-Apr-17 06:30N 29°33' W 093°45'510.4
2018-Apr-17 06:00N 29°37' W 093°49'510.8
2018-Apr-17 05:30N 29°42' W 093°51'4 8.6
2018-Apr-17 05:00N 29°46' W 093°54'4 8.0
2018-Apr-17 04:30N 29°48' W 093°57'3 6.6
2018-Apr-17 04:00N 29°51' W 093°57'3 6.8
2018-Apr-17 03:30N 29°54' W 093°54'3 6.3
2018-Apr-17 03:00N 29°57' W 093°52'3 5.2
2018-Apr-17 02:30N 29°59' W 093°53'3 6.3
2018-Apr-17 02:00N 29°60' W 093°56'2 4.8
2018-Apr-17 01:31N 30°01' W 093°59'3 5.0
2018-Apr-17 01:00N 30°01' W 094°02'1 1.9
2018-Apr-17 00:28N 30°02' W 094°02'0 0.0
2018-Apr-16 23:58N 30°02' W 094°02'0 0.0
2018-Apr-16 23:28N 30°02' W 094°02'0 0.0
2018-Apr-16 22:59N 30°02' W 094°02'0 0.0
2018-Apr-16 22:28N 30°02' W 094°02'0 0.0
2018-Apr-16 21:58N 30°02' W 094°02'0 0.0
2018-Apr-16 21:28N 30°02' W 094°02'0 0.0
2018-Apr-16 20:58N 30°02' W 094°02'0 0.0
2018-Apr-16 20:28N 30°02' W 094°02'0 0.0
2018-Apr-16 19:58N 30°02' W 094°02'0 0.0
2018-Apr-16 19:28N 30°02' W 094°02'0 0.0
2018-Apr-16 18:58N 30°02' W 094°02'0 0.0
2018-Apr-16 18:28N 30°02' W 094°02'0 0.0
2018-Apr-16 17:58N 30°02' W 094°02'0 0.0
2018-Apr-16 17:28N 30°02' W 094°02'0 0.0
2018-Apr-16 16:58N 30°02' W 094°02'0 0.0
2018-Apr-16 16:28N 30°02' W 094°02'0 0.0
2018-Apr-16 15:58N 30°02' W 094°02'0 0.0
2018-Apr-16 15:28N 30°02' W 094°02'0 0.0
2018-Apr-16 14:58N 30°02' W 094°02'0 0.0
2018-Apr-16 14:28N 30°02' W 094°02'0 0.0
2018-Apr-16 13:58N 30°02' W 094°02'0 0.0
2018-Apr-16 13:28N 30°02' W 094°02'0 0.0
2018-Apr-16 12:58N 30°02' W 094°02'0 0.0
2018-Apr-16 12:28N 30°02' W 094°02'0 0.0
2018-Apr-16 11:58N 30°02' W 094°02'0 0.0
2018-Apr-16 11:28N 30°02' W 094°02'0 0.0
2018-Apr-16 10:58N 30°02' W 094°02'0 0.0
2018-Apr-16 10:28N 30°02' W 094°02'0 0.0
2018-Apr-16 09:58N 30°02' W 094°02'0 0.0
2018-Apr-16 09:28N 30°02' W 094°02'0 0.0
2018-Apr-16 08:58N 30°02' W 094°02'0 0.0
2018-Apr-16 08:28N 30°02' W 094°02'0 0.0
2018-Apr-16 07:58N 30°02' W 094°02'0 0.0
2018-Apr-16 07:28N 30°02' W 094°02'0 0.0
2018-Apr-16 06:58N 30°02' W 094°02'0 0.0
2018-Apr-16 06:28N 30°02' W 094°02'0 0.0
2018-Apr-16 05:58N 30°02' W 094°02'0 0.0
2018-Apr-16 05:28N 30°02' W 094°02'0 0.0
2018-Apr-16 04:58N 30°02' W 094°02'0 0.0
2018-Apr-16 04:28N 30°02' W 094°02'0 0.0
2018-Apr-16 03:58N 30°02' W 094°02'0 0.0
2018-Apr-16 03:28N 30°02' W 094°02'0 0.0
2018-Apr-16 02:58N 30°02' W 094°02'0 0.0
2018-Apr-16 02:28N 30°02' W 094°02'0 0.0
2018-Apr-16 01:58N 30°02' W 094°02'0 0.0
2018-Apr-16 01:28N 30°02' W 094°02'0 0.0
2018-Apr-16 00:58N 30°02' W 094°02'0 0.0
2018-Apr-16 00:28N 30°02' W 094°02'0 0.0
2018-Apr-15 23:58N 30°02' W 094°02'0 0.0
2018-Apr-15 23:28N 30°02' W 094°02'0 0.0
2018-Apr-15 22:58N 30°02' W 094°02'0 0.0
2018-Apr-15 22:28N 30°02' W 094°02'0 0.0
2018-Apr-15 21:58N 30°02' W 094°02'0 0.0
2018-Apr-15 21:28N 30°02' W 094°02'0 0.0
2018-Apr-15 20:58N 30°02' W 094°02'0 0.0
2018-Apr-15 20:28N 30°02' W 094°02'0 0.0
2018-Apr-15 19:58N 30°02' W 094°02'0 0.0
2018-Apr-15 19:28N 30°02' W 094°02'0 0.0
2018-Apr-15 18:58N 30°02' W 094°02'0 0.0
2018-Apr-15 18:28N 30°02' W 094°02'0 0.0
2018-Apr-15 17:58N 30°02' W 094°02'0 0.0
2018-Apr-15 17:28N 30°02' W 094°02'0 0.0
2018-Apr-15 16:58N 30°02' W 094°02'0 0.0
2018-Apr-15 16:28N 30°02' W 094°02'0 0.0
2018-Apr-15 15:58N 30°02' W 094°02'0 0.0
2018-Apr-15 15:28N 30°02' W 094°02'0 0.0
2018-Apr-15 14:58N 30°02' W 094°02'0 0.0
2018-Apr-15 14:28N 30°02' W 094°02'0 0.0
2018-Apr-15 13:58N 30°02' W 094°02'0 0.0
2018-Apr-15 13:28N 30°02' W 094°02'0 0.0
2018-Apr-15 12:58N 30°02' W 094°02'0 0.0
2018-Apr-15 12:28N 30°02' W 094°02'0 0.0
2018-Apr-15 11:58N 30°02' W 094°02'0 0.0
2018-Apr-15 11:28N 30°02' W 094°02'0 0.0
2018-Apr-15 10:58N 30°02' W 094°02'0 0.0
2018-Apr-15 10:28N 30°02' W 094°02'0 0.0
2018-Apr-15 09:55N 30°02' W 094°02'0 0.0
2018-Apr-15 09:28N 30°02' W 094°02'0 0.0
2018-Apr-15 08:58N 30°02' W 094°02'0 0.0
2018-Apr-15 08:28N 30°02' W 094°02'0 0.0
2018-Apr-15 07:58N 30°02' W 094°02'0 0.0
2018-Apr-15 07:28N 30°02' W 094°02'0 0.0
2018-Apr-15 06:58N 30°02' W 094°02'0 0.0
2018-Apr-15 06:28N 30°02' W 094°02'0 0.0
2018-Apr-15 05:55N 30°02' W 094°02'0 0.0
2018-Apr-15 05:28N 30°02' W 094°02'0 0.0
2018-Apr-15 04:58N 30°02' W 094°02'0 0.0
2018-Apr-15 04:28N 30°02' W 094°02'0 0.0
2018-Apr-15 03:58N 30°02' W 094°02'0 0.0
2018-Apr-15 03:28N 30°02' W 094°02'0 0.0
2018-Apr-15 02:58N 30°02' W 094°02'0 0.0
2018-Apr-15 02:28N 30°02' W 094°02'0 0.0
2018-Apr-15 01:58N 30°02' W 094°02'0 0.0
2018-Apr-15 01:28N 30°02' W 094°02'0 0.0
2018-Apr-15 00:58N 30°02' W 094°02'0 0.0
2018-Apr-15 00:28N 30°02' W 094°02'0 0.0
2018-Apr-14 23:58N 30°02' W 094°02'0 0.0
2018-Apr-14 23:28N 30°02' W 094°02'0 0.0
2018-Apr-14 22:58N 30°02' W 094°02'0 0.0
2018-Apr-14 22:28N 30°02' W 094°02'0 0.0
2018-Apr-14 21:58N 30°02' W 094°02'0 0.0
2018-Apr-14 21:28N 30°02' W 094°02'0 0.0
2018-Apr-14 20:58N 30°02' W 094°02'0 0.0
2018-Apr-14 20:28N 30°02' W 094°02'0 0.0
2018-Apr-14 19:58N 30°02' W 094°02'0 0.0
2018-Apr-14 19:28N 30°02' W 094°02'0 0.0
2018-Apr-14 18:58N 30°02' W 094°02'0 0.0
2018-Apr-14 18:28N 30°02' W 094°02'0 0.0
2018-Apr-14 17:58N 30°02' W 094°02'0 0.0
2018-Apr-14 17:28N 30°02' W 094°02'0 0.0
2018-Apr-14 16:58N 30°02' W 094°02'0 0.0
2018-Apr-14 16:28N 30°02' W 094°02'0 0.0
2018-Apr-14 15:58N 30°02' W 094°02'0 0.0
2018-Apr-14 15:28N 30°02' W 094°02'0 0.0
2018-Apr-14 14:58N 30°02' W 094°02'0 0.0
2018-Apr-14 14:28N 30°02' W 094°02'0 0.0
2018-Apr-14 13:58N 30°02' W 094°02'0 0.0
2018-Apr-14 13:28N 30°02' W 094°02'0 0.0
2018-Apr-14 12:58N 30°02' W 094°02'0 0.0
2018-Apr-14 12:28N 30°02' W 094°02'0 0.0
2018-Apr-14 11:58N 30°02' W 094°02'0 0.0
2018-Apr-14 11:28N 30°02' W 094°02'0 0.0
2018-Apr-14 10:58N 30°02' W 094°02'0 0.0
2018-Apr-14 10:28N 30°02' W 094°02'0 0.0
2018-Apr-14 09:58N 30°02' W 094°02'0 0.4
2018-Apr-14 09:31N 30°02' W 094°02'1 2.3
2018-Apr-14 09:00N 30°01' W 094°01'3 5.7
2018-Apr-14 08:30N 30°01' W 093°58'3 5.9
2018-Apr-14 08:01N 29°59' W 093°55'4 7.3
2018-Apr-14 07:31N 29°58' W 093°51'4 7.5
2018-Apr-14 07:00N 29°55' W 093°54'4 8.1
2018-Apr-14 06:30N 29°51' W 093°56'4 8.5
2018-Apr-14 06:00N 29°47' W 093°57'5 9.2
2018-Apr-14 05:31N 29°44' W 093°53'510.2
2018-Apr-14 05:01N 29°40' W 093°50'611.2
2018-Apr-14 04:30N 29°35' W 093°47'4 7.3
2018-Apr-14 04:00N 29°34' W 093°43'0 0.6
2018-Apr-14 03:26N 29°34' W 093°43'0 0.0
2018-Apr-14 03:00N 29°34' W 093°43'0 0.0
2018-Apr-14 02:29N 29°34' W 093°43'0 0.0
2018-Apr-14 01:56N 29°34' W 093°43'0 0.0
2018-Apr-14 01:30N 29°34' W 093°43'0 0.0
2018-Apr-14 01:00N 29°34' W 093°43'0 0.0
2018-Apr-14 00:30N 29°34' W 093°43'0 0.0
2018-Apr-14 00:00N 29°34' W 093°43'0 0.0
2018-Apr-13 23:30N 29°34' W 093°43'0 0.0
2018-Apr-13 23:00N 29°34' W 093°43'0 0.0
2018-Apr-13 22:27N 29°34' W 093°43'0 0.0
2018-Apr-13 21:57N 29°34' W 093°43'0 0.0
2018-Apr-13 21:26N 29°34' W 093°43'0 0.0
2018-Apr-13 20:59N 29°34' W 093°43'0 0.0
2018-Apr-13 20:23N 29°34' W 093°43'0 0.0
2018-Apr-13 20:00N 29°34' W 093°43'0 0.0
2018-Apr-13 19:27N 29°34' W 093°43'0 0.0
2018-Apr-13 18:56N 29°34' W 093°43'0 0.0
2018-Apr-13 18:29N 29°34' W 093°43'0 0.0
2018-Apr-13 17:56N 29°34' W 093°43'0 0.0
2018-Apr-13 17:30N 29°34' W 093°43'0 0.0
2018-Apr-13 17:00N 29°34' W 093°43'0 0.1
2018-Apr-13 16:29N 29°34' W 093°43'0 0.0
2018-Apr-13 15:59N 29°34' W 093°43'0 0.1
2018-Apr-13 15:29N 29°34' W 093°43'0 0.0
2018-Apr-13 14:59N 29°34' W 093°43'0 0.1
2018-Apr-13 14:29N 29°34' W 093°43'0 0.1
2018-Apr-13 14:00N 29°34' W 093°43'0 0.0
2018-Apr-13 13:29N 29°34' W 093°43'0 0.0
2018-Apr-13 12:56N 29°34' W 093°43'0 0.0
2018-Apr-13 12:29N 29°34' W 093°43'0 0.0
2018-Apr-13 11:59N 29°34' W 093°43'0 0.0
2018-Apr-13 11:29N 29°34' W 093°43'0 0.0
2018-Apr-13 10:59N 29°34' W 093°43'0 0.0
2018-Apr-13 10:29N 29°34' W 093°43'0 0.0
2018-Apr-13 09:59N 29°34' W 093°43'0 0.0
2018-Apr-13 09:29N 29°34' W 093°43'0 0.0
2018-Apr-13 08:59N 29°34' W 093°43'0 0.0
2018-Apr-13 08:29N 29°34' W 093°43'0 0.0
2018-Apr-13 07:59N 29°34' W 093°43'0 0.0
2018-Apr-13 07:29N 29°34' W 093°43'0 0.0
2018-Apr-13 06:59N 29°34' W 093°43'0 0.0
2018-Apr-13 06:29N 29°34' W 093°43'0 0.0
2018-Apr-13 05:59N 29°34' W 093°43'0 0.0
2018-Apr-13 05:26N 29°34' W 093°43'0 0.0
2018-Apr-13 04:59N 29°34' W 093°43'0 0.0
2018-Apr-13 04:29N 29°34' W 093°43'0 0.0
2018-Apr-13 03:59N 29°34' W 093°43'0 0.0
2018-Apr-13 03:29N 29°34' W 093°43'0 0.0
2018-Apr-13 02:59N 29°34' W 093°43'0 0.0
2018-Apr-13 02:29N 29°34' W 093°43'0 0.0
2018-Apr-13 01:59N 29°34' W 093°43'0 0.0
2018-Apr-13 01:29N 29°34' W 093°43'0 0.0
2018-Apr-13 00:56N 29°34' W 093°43'0 0.0
2018-Apr-13 00:29N 29°34' W 093°43'0 0.0
2018-Apr-12 23:59N 29°34' W 093°43'0 0.0
2018-Apr-12 23:29N 29°34' W 093°43'0 0.0
2018-Apr-12 22:59N 29°34' W 093°43'0 0.0
2018-Apr-12 22:29N 29°34' W 093°43'0 0.0
2018-Apr-12 21:59N 29°34' W 093°43'0 0.0
2018-Apr-12 21:29N 29°34' W 093°43'0 0.0
2018-Apr-12 20:59N 29°34' W 093°43'0 0.0
2018-Apr-12 20:29N 29°34' W 093°43'0 0.0
2018-Apr-12 19:59N 29°34' W 093°43'0 0.0
2018-Apr-12 19:29N 29°34' W 093°43'0 0.0
2018-Apr-12 18:56N 29°34' W 093°43'0 0.0
2018-Apr-12 18:29N 29°34' W 093°43'0 0.0
2018-Apr-12 17:59N 29°34' W 093°43'0 0.0
2018-Apr-12 17:29N 29°34' W 093°43'0 0.0
2018-Apr-12 16:59N 29°34' W 093°43'0 0.0
2018-Apr-12 16:29N 29°34' W 093°43'0 0.1
2018-Apr-12 15:59N 29°34' W 093°43'0 0.1
2018-Apr-12 15:29N 29°34' W 093°43'0 0.0
2018-Apr-12 14:56N 29°34' W 093°43'0 0.0
2018-Apr-12 14:29N 29°34' W 093°43'0 0.1
2018-Apr-12 13:59N 29°34' W 093°43'0 0.1
2018-Apr-12 13:29N 29°34' W 093°43'0 0.1
2018-Apr-12 12:59N 29°34' W 093°43'0 0.1
2018-Apr-12 12:29N 29°34' W 093°43'0 0.1
2018-Apr-12 11:59N 29°34' W 093°43'0 0.1
2018-Apr-12 11:29N 29°34' W 093°43'0 0.1
2018-Apr-12 10:59N 29°34' W 093°43'0 0.1
2018-Apr-12 10:29N 29°34' W 093°43'0 0.0
2018-Apr-12 09:59N 29°34' W 093°43'0 0.0
2018-Apr-12 09:29N 29°34' W 093°43'0 0.0
2018-Apr-12 08:59N 29°34' W 093°43'0 0.0
2018-Apr-12 08:29N 29°34' W 093°43'0 0.0
2018-Apr-12 07:59N 29°34' W 093°43'0 0.0
2018-Apr-12 07:29N 29°34' W 093°43'0 0.0
2018-Apr-12 06:59N 29°34' W 093°43'0 0.0
2018-Apr-12 06:26N 29°34' W 093°43'0 0.0
2018-Apr-12 05:59N 29°34' W 093°43'0 0.0
2018-Apr-12 05:29N 29°34' W 093°43'0 0.0
2018-Apr-12 04:59N 29°34' W 093°43'0 0.0
2018-Apr-12 04:29N 29°34' W 093°43'0 0.0
2018-Apr-12 03:59N 29°34' W 093°43'0 0.0
2018-Apr-12 03:29N 29°34' W 093°43'0 0.0
2018-Apr-12 02:59N 29°34' W 093°43'0 0.0
2018-Apr-12 02:29N 29°34' W 093°43'0 0.0
2018-Apr-12 01:59N 29°34' W 093°43'0 0.0
2018-Apr-12 01:29N 29°34' W 093°43'0 0.0
2018-Apr-12 00:59N 29°34' W 093°43'0 0.0
2018-Apr-12 00:29N 29°34' W 093°43'0 0.0
2018-Apr-11 23:59N 29°34' W 093°43'0 0.0
2018-Apr-11 23:29N 29°34' W 093°43'0 0.0
2018-Apr-11 22:59N 29°34' W 093°43'  

Dump ship's entire track history